sensor_id;sensor_type;location;lat;lon;timestamp;P1;durP1;ratioP1;P2;durP2;ratioP2
85158;SDS011;75525;50.718;10.600;2024-03-07T00:00:24;19.70;;;11.07;;
85158;SDS011;75525;50.718;10.600;2024-03-07T00:01:24;20.25;;;11.68;;
85158;SDS011;75525;50.718;10.600;2024-03-07T00:02:26;20.25;;;11.20;;
85158;SDS011;75525;50.718;10.600;2024-03-07T00:03:28;17.50;;;11.18;;
85158;SDS011;75525;50.718;10.600;2024-03-07T00:04:28;18.10;;;11.43;;
85158;SDS011;75525;50.718;10.600;2024-03-07T00:05:29;21.05;;;12.00;;
85158;SDS011;75525;50.718;10.600;2024-03-07T00:06:29;20.88;;;11.27;;
85158;SDS011;75525;50.718;10.600;2024-03-07T00:07:30;17.85;;;10.98;;
85158;SDS011;75525;50.718;10.600;2024-03-07T00:08:30;21.80;;;11.50;;
85158;SDS011;75525;50.718;10.600;2024-03-07T00:09:31;18.58;;;11.50;;
85158;SDS011;75525;50.718;10.600;2024-03-07T00:10:32;18.15;;;10.50;;
85158;SDS011;75525;50.718;10.600;2024-03-07T00:11:32;18.98;;;11.52;;
85158;SDS011;75525;50.718;10.600;2024-03-07T00:12:36;23.13;;;11.15;;
85158;SDS011;75525;50.718;10.600;2024-03-07T00:13:38;22.08;;;11.73;;
85158;SDS011;75525;50.718;10.600;2024-03-07T00:14:39;20.23;;;11.27;;
85158;SDS011;75525;50.718;10.600;2024-03-07T00:15:40;21.83;;;12.02;;
85158;SDS011;75525;50.718;10.600;2024-03-07T00:16:41;20.23;;;11.45;;
85158;SDS011;75525;50.718;10.600;2024-03-07T00:17:42;24.67;;;13.32;;
85158;SDS011;75525;50.718;10.600;2024-03-07T00:18:43;18.52;;;11.98;;
85158;SDS011;75525;50.718;10.600;2024-03-07T00:19:43;21.00;;;12.23;;
85158;SDS011;75525;50.718;10.600;2024-03-07T00:20:43;22.50;;;13.43;;
85158;SDS011;75525;50.718;10.600;2024-03-07T00:21:44;24.50;;;13.68;;
85158;SDS011;75525;50.718;10.600;2024-03-07T00:22:44;21.83;;;13.38;;
85158;SDS011;75525;50.718;10.600;2024-03-07T00:23:45;25.77;;;14.63;;
85158;SDS011;75525;50.718;10.600;2024-03-07T00:24:45;24.20;;;13.60;;
85158;SDS011;75525;50.718;10.600;2024-03-07T00:25:47;22.83;;;13.88;;
85158;SDS011;75525;50.718;10.600;2024-03-07T00:26:50;24.08;;;14.30;;
85158;SDS011;75525;50.718;10.600;2024-03-07T00:27:51;24.30;;;13.65;;
85158;SDS011;75525;50.718;10.600;2024-03-07T00:28:53;23.38;;;12.98;;
85158;SDS011;75525;50.718;10.600;2024-03-07T00:29:54;24.75;;;14.30;;
85158;SDS011;75525;50.718;10.600;2024-03-07T00:30:54;22.52;;;13.27;;
85158;SDS011;75525;50.718;10.600;2024-03-07T00:31:55;21.52;;;14.02;;
85158;SDS011;75525;50.718;10.600;2024-03-07T00:32:56;24.15;;;14.23;;
85158;SDS011;75525;50.718;10.600;2024-03-07T00:33:57;31.05;;;16.65;;
85158;SDS011;75525;50.718;10.600;2024-03-07T00:34:58;22.77;;;13.32;;
85158;SDS011;75525;50.718;10.600;2024-03-07T00:35:58;23.60;;;13.52;;
85158;SDS011;75525;50.718;10.600;2024-03-07T00:37:00;24.20;;;12.43;;
85158;SDS011;75525;50.718;10.600;2024-03-07T00:38:00;27.80;;;14.85;;
85158;SDS011;75525;50.718;10.600;2024-03-07T00:39:01;22.65;;;14.10;;
85158;SDS011;75525;50.718;10.600;2024-03-07T00:40:01;22.55;;;13.40;;
85158;SDS011;75525;50.718;10.600;2024-03-07T00:41:03;22.30;;;13.98;;
85158;SDS011;75525;50.718;10.600;2024-03-07T00:42:03;25.35;;;13.52;;
85158;SDS011;75525;50.718;10.600;2024-03-07T00:43:04;23.38;;;13.23;;
85158;SDS011;75525;50.718;10.600;2024-03-07T00:44:05;24.67;;;13.45;;
85158;SDS011;75525;50.718;10.600;2024-03-07T00:45:09;24.80;;;13.60;;
85158;SDS011;75525;50.718;10.600;2024-03-07T00:46:10;24.77;;;15.07;;
85158;SDS011;75525;50.718;10.600;2024-03-07T00:47:11;22.83;;;12.40;;
85158;SDS011;75525;50.718;10.600;2024-03-07T00:48:11;20.60;;;13.48;;
85158;SDS011;75525;50.718;10.600;2024-03-07T00:49:12;22.02;;;12.32;;
85158;SDS011;75525;50.718;10.600;2024-03-07T00:50:12;23.38;;;13.60;;
85158;SDS011;75525;50.718;10.600;2024-03-07T00:51:12;22.63;;;13.93;;
85158;SDS011;75525;50.718;10.600;2024-03-07T00:52:14;23.55;;;14.25;;
85158;SDS011;75525;50.718;10.600;2024-03-07T00:53:15;24.17;;;13.85;;
85158;SDS011;75525;50.718;10.600;2024-03-07T00:54:15;25.50;;;14.77;;
85158;SDS011;75525;50.718;10.600;2024-03-07T00:55:16;25.80;;;12.63;;
85158;SDS011;75525;50.718;10.600;2024-03-07T00:56:18;22.65;;;13.00;;
85158;SDS011;75525;50.718;10.600;2024-03-07T00:57:18;22.65;;;13.55;;
85158;SDS011;75525;50.718;10.600;2024-03-07T00:58:19;26.13;;;14.32;;
85158;SDS011;75525;50.718;10.600;2024-03-07T00:59:20;21.85;;;13.65;;
85158;SDS011;75525;50.718;10.600;2024-03-07T01:00:20;23.00;;;13.55;;
85158;SDS011;75525;50.718;10.600;2024-03-07T01:01:21;21.58;;;13.00;;
85158;SDS011;75525;50.718;10.600;2024-03-07T01:02:22;23.15;;;13.85;;
85158;SDS011;75525;50.718;10.600;2024-03-07T01:03:22;25.05;;;13.50;;
85158;SDS011;75525;50.718;10.600;2024-03-07T01:04:24;24.60;;;13.48;;
85158;SDS011;75525;50.718;10.600;2024-03-07T01:05:25;23.15;;;13.30;;
85158;SDS011;75525;50.718;10.600;2024-03-07T01:06:25;22.77;;;13.35;;
85158;SDS011;75525;50.718;10.600;2024-03-07T01:07:26;22.55;;;12.30;;
85158;SDS011;75525;50.718;10.600;2024-03-07T01:08:28;21.05;;;12.63;;
85158;SDS011;75525;50.718;10.600;2024-03-07T01:09:28;23.55;;;13.77;;
85158;SDS011;75525;50.718;10.600;2024-03-07T01:10:29;21.65;;;12.70;;
85158;SDS011;75525;50.718;10.600;2024-03-07T01:11:29;24.23;;;13.90;;
85158;SDS011;75525;50.718;10.600;2024-03-07T01:12:31;23.13;;;13.13;;
85158;SDS011;75525;50.718;10.600;2024-03-07T01:13:34;24.65;;;13.18;;
85158;SDS011;75525;50.718;10.600;2024-03-07T01:14:34;17.73;;;11.85;;
85158;SDS011;75525;50.718;10.600;2024-03-07T01:15:35;19.98;;;12.18;;
85158;SDS011;75525;50.718;10.600;2024-03-07T01:16:36;24.08;;;13.68;;
85158;SDS011;75525;50.718;10.600;2024-03-07T01:17:37;21.30;;;12.75;;
85158;SDS011;75525;50.718;10.600;2024-03-07T01:18:37;23.27;;;13.25;;
85158;SDS011;75525;50.718;10.600;2024-03-07T01:19:37;21.98;;;13.60;;
85158;SDS011;75525;50.718;10.600;2024-03-07T01:20:38;24.08;;;13.07;;
85158;SDS011;75525;50.718;10.600;2024-03-07T01:21:38;23.80;;;12.57;;
85158;SDS011;75525;50.718;10.600;2024-03-07T01:22:39;21.08;;;12.68;;
85158;SDS011;75525;50.718;10.600;2024-03-07T01:23:39;23.02;;;13.50;;
85158;SDS011;75525;50.718;10.600;2024-03-07T01:24:40;21.00;;;12.70;;
85158;SDS011;75525;50.718;10.600;2024-03-07T01:25:40;22.05;;;13.05;;
85158;SDS011;75525;50.718;10.600;2024-03-07T01:26:41;22.60;;;13.23;;
85158;SDS011;75525;50.718;10.600;2024-03-07T01:27:41;24.23;;;13.52;;
85158;SDS011;75525;50.718;10.600;2024-03-07T01:28:42;22.00;;;13.30;;
85158;SDS011;75525;50.718;10.600;2024-03-07T01:29:42;21.38;;;12.45;;
85158;SDS011;75525;50.718;10.600;2024-03-07T01:30:44;22.63;;;11.95;;
85158;SDS011;75525;50.718;10.600;2024-03-07T01:31:45;22.08;;;12.50;;
85158;SDS011;75525;50.718;10.600;2024-03-07T01:32:45;22.20;;;13.00;;
85158;SDS011;75525;50.718;10.600;2024-03-07T01:33:45;26.80;;;13.25;;
85158;SDS011;75525;50.718;10.600;2024-03-07T01:34:46;26.10;;;14.07;;
85158;SDS011;75525;50.718;10.600;2024-03-07T01:35:46;24.35;;;13.77;;
85158;SDS011;75525;50.718;10.600;2024-03-07T01:36:47;20.95;;;12.90;;
85158;SDS011;75525;50.718;10.600;2024-03-07T01:37:47;26.75;;;14.80;;
85158;SDS011;75525;50.718;10.600;2024-03-07T01:38:48;21.67;;;13.15;;
85158;SDS011;75525;50.718;10.600;2024-03-07T01:39:48;25.33;;;13.35;;
85158;SDS011;75525;50.718;10.600;2024-03-07T01:40:48;22.33;;;13.25;;
85158;SDS011;75525;50.718;10.600;2024-03-07T01:41:49;23.08;;;14.05;;
85158;SDS011;75525;50.718;10.600;2024-03-07T01:42:49;23.42;;;13.27;;
85158;SDS011;75525;50.718;10.600;2024-03-07T01:43:50;24.00;;;14.00;;
85158;SDS011;75525;50.718;10.600;2024-03-07T01:44:50;25.73;;;13.80;;
85158;SDS011;75525;50.718;10.600;2024-03-07T01:45:52;23.25;;;13.13;;
85158;SDS011;75525;50.718;10.600;2024-03-07T01:46:55;24.88;;;13.85;;
85158;SDS011;75525;50.718;10.600;2024-03-07T01:47:55;28.67;;;14.43;;
85158;SDS011;75525;50.718;10.600;2024-03-07T01:48:57;25.90;;;15.20;;
85158;SDS011;75525;50.718;10.600;2024-03-07T01:49:58;26.10;;;13.68;;
85158;SDS011;75525;50.718;10.600;2024-03-07T01:50:59;28.05;;;14.63;;
85158;SDS011;75525;50.718;10.600;2024-03-07T01:52:00;23.80;;;14.18;;
85158;SDS011;75525;50.718;10.600;2024-03-07T01:53:02;24.98;;;14.70;;
85158;SDS011;75525;50.718;10.600;2024-03-07T01:54:03;27.58;;;15.40;;
85158;SDS011;75525;50.718;10.600;2024-03-07T01:55:04;24.92;;;14.05;;
85158;SDS011;75525;50.718;10.600;2024-03-07T01:56:06;27.23;;;14.98;;
85158;SDS011;75525;50.718;10.600;2024-03-07T01:57:06;25.52;;;14.35;;
85158;SDS011;75525;50.718;10.600;2024-03-07T01:58:08;22.52;;;14.50;;
85158;SDS011;75525;50.718;10.600;2024-03-07T01:59:09;24.23;;;13.70;;
85158;SDS011;75525;50.718;10.600;2024-03-07T02:00:12;25.90;;;15.10;;
85158;SDS011;75525;50.718;10.600;2024-03-07T02:01:13;26.90;;;14.30;;
85158;SDS011;75525;50.718;10.600;2024-03-07T02:02:15;26.88;;;15.50;;
85158;SDS011;75525;50.718;10.600;2024-03-07T02:03:20;28.38;;;15.15;;
85158;SDS011;75525;50.718;10.600;2024-03-07T02:04:20;23.08;;;14.55;;
85158;SDS011;75525;50.718;10.600;2024-03-07T02:05:21;29.65;;;15.68;;
85158;SDS011;75525;50.718;10.600;2024-03-07T02:06:21;26.92;;;16.23;;
85158;SDS011;75525;50.718;10.600;2024-03-07T02:07:23;30.15;;;14.65;;
85158;SDS011;75525;50.718;10.600;2024-03-07T02:08:24;30.80;;;15.57;;
85158;SDS011;75525;50.718;10.600;2024-03-07T02:09:24;27.20;;;16.02;;
85158;SDS011;75525;50.718;10.600;2024-03-07T02:10:25;24.48;;;13.85;;
85158;SDS011;75525;50.718;10.600;2024-03-07T02:11:26;27.20;;;16.55;;
85158;SDS011;75525;50.718;10.600;2024-03-07T02:12:26;27.08;;;15.88;;
85158;SDS011;75525;50.718;10.600;2024-03-07T02:13:27;28.08;;;14.65;;
85158;SDS011;75525;50.718;10.600;2024-03-07T02:14:27;31.90;;;15.75;;
85158;SDS011;75525;50.718;10.600;2024-03-07T02:15:28;29.90;;;15.00;;
85158;SDS011;75525;50.718;10.600;2024-03-07T02:16:28;31.77;;;15.50;;
85158;SDS011;75525;50.718;10.600;2024-03-07T02:17:29;27.38;;;14.57;;
85158;SDS011;75525;50.718;10.600;2024-03-07T02:18:30;31.98;;;15.93;;
85158;SDS011;75525;50.718;10.600;2024-03-07T02:19:30;25.98;;;14.32;;
85158;SDS011;75525;50.718;10.600;2024-03-07T02:20:32;31.65;;;15.65;;
85158;SDS011;75525;50.718;10.600;2024-03-07T02:21:32;30.13;;;16.25;;
85158;SDS011;75525;50.718;10.600;2024-03-07T02:22:33;26.23;;;15.10;;
85158;SDS011;75525;50.718;10.600;2024-03-07T02:23:33;29.67;;;15.95;;
85158;SDS011;75525;50.718;10.600;2024-03-07T02:24:34;31.00;;;15.10;;
85158;SDS011;75525;50.718;10.600;2024-03-07T02:25:34;27.02;;;14.82;;
85158;SDS011;75525;50.718;10.600;2024-03-07T02:26:37;29.13;;;15.98;;
85158;SDS011;75525;50.718;10.600;2024-03-07T02:27:39;28.88;;;14.82;;
85158;SDS011;75525;50.718;10.600;2024-03-07T02:28:39;27.35;;;14.45;;
85158;SDS011;75525;50.718;10.600;2024-03-07T02:29:40;30.42;;;15.43;;
85158;SDS011;75525;50.718;10.600;2024-03-07T02:30:42;26.38;;;14.65;;
85158;SDS011;75525;50.718;10.600;2024-03-07T02:31:42;29.65;;;16.40;;
85158;SDS011;75525;50.718;10.600;2024-03-07T02:32:43;27.33;;;15.32;;
85158;SDS011;75525;50.718;10.600;2024-03-07T02:33:48;26.95;;;15.10;;
85158;SDS011;75525;50.718;10.600;2024-03-07T02:34:49;31.15;;;15.80;;
85158;SDS011;75525;50.718;10.600;2024-03-07T02:35:49;30.00;;;14.95;;
85158;SDS011;75525;50.718;10.600;2024-03-07T02:36:49;30.55;;;16.08;;
85158;SDS011;75525;50.718;10.600;2024-03-07T02:37:51;33.53;;;17.45;;
85158;SDS011;75525;50.718;10.600;2024-03-07T02:38:51;29.35;;;16.27;;
85158;SDS011;75525;50.718;10.600;2024-03-07T02:39:52;31.25;;;16.08;;
85158;SDS011;75525;50.718;10.600;2024-03-07T02:40:52;30.50;;;17.15;;
85158;SDS011;75525;50.718;10.600;2024-03-07T02:41:53;31.80;;;17.48;;
85158;SDS011;75525;50.718;10.600;2024-03-07T02:42:53;29.52;;;15.38;;
85158;SDS011;75525;50.718;10.600;2024-03-07T02:43:54;31.17;;;15.50;;
85158;SDS011;75525;50.718;10.600;2024-03-07T02:44:54;33.13;;;16.75;;
85158;SDS011;75525;50.718;10.600;2024-03-07T02:45:54;31.92;;;16.90;;
85158;SDS011;75525;50.718;10.600;2024-03-07T02:46:55;28.73;;;16.27;;
85158;SDS011;75525;50.718;10.600;2024-03-07T02:47:56;30.77;;;16.00;;
85158;SDS011;75525;50.718;10.600;2024-03-07T02:48:56;28.58;;;15.52;;
85158;SDS011;75525;50.718;10.600;2024-03-07T02:49:56;29.05;;;15.80;;
85158;SDS011;75525;50.718;10.600;2024-03-07T02:50:57;32.08;;;16.63;;
85158;SDS011;75525;50.718;10.600;2024-03-07T02:51:57;33.65;;;15.82;;
85158;SDS011;75525;50.718;10.600;2024-03-07T02:52:58;28.65;;;15.60;;
85158;SDS011;75525;50.718;10.600;2024-03-07T02:53:58;32.03;;;16.02;;
85158;SDS011;75525;50.718;10.600;2024-03-07T02:54:59;32.80;;;17.27;;
85158;SDS011;75525;50.718;10.600;2024-03-07T02:55:59;27.95;;;15.32;;
85158;SDS011;75525;50.718;10.600;2024-03-07T02:57:00;35.60;;;16.30;;
85158;SDS011;75525;50.718;10.600;2024-03-07T02:58:01;27.42;;;15.93;;
85158;SDS011;75525;50.718;10.600;2024-03-07T02:59:01;29.48;;;15.38;;
85158;SDS011;75525;50.718;10.600;2024-03-07T03:00:04;31.67;;;16.05;;
85158;SDS011;75525;50.718;10.600;2024-03-07T03:01:15;30.05;;;16.50;;
85158;SDS011;75525;50.718;10.600;2024-03-07T03:02:16;33.40;;;16.05;;
85158;SDS011;75525;50.718;10.600;2024-03-07T03:03:17;29.13;;;16.27;;
85158;SDS011;75525;50.718;10.600;2024-03-07T03:04:17;30.10;;;15.10;;
85158;SDS011;75525;50.718;10.600;2024-03-07T03:05:17;30.25;;;15.93;;
85158;SDS011;75525;50.718;10.600;2024-03-07T03:06:18;36.67;;;18.90;;
85158;SDS011;75525;50.718;10.600;2024-03-07T03:07:22;36.33;;;17.42;;
85158;SDS011;75525;50.718;10.600;2024-03-07T03:08:23;29.00;;;14.88;;
85158;SDS011;75525;50.718;10.600;2024-03-07T03:09:24;32.92;;;18.38;;
85158;SDS011;75525;50.718;10.600;2024-03-07T03:10:25;33.60;;;16.67;;
85158;SDS011;75525;50.718;10.600;2024-03-07T03:11:28;31.17;;;15.55;;
85158;SDS011;75525;50.718;10.600;2024-03-07T03:12:29;34.53;;;16.80;;
85158;SDS011;75525;50.718;10.600;2024-03-07T03:13:30;31.02;;;16.92;;
85158;SDS011;75525;50.718;10.600;2024-03-07T03:14:30;29.13;;;15.57;;
85158;SDS011;75525;50.718;10.600;2024-03-07T03:15:31;31.67;;;16.88;;
85158;SDS011;75525;50.718;10.600;2024-03-07T03:16:31;33.88;;;17.15;;
85158;SDS011;75525;50.718;10.600;2024-03-07T03:17:31;36.85;;;16.58;;
85158;SDS011;75525;50.718;10.600;2024-03-07T03:18:32;31.13;;;16.15;;
85158;SDS011;75525;50.718;10.600;2024-03-07T03:19:34;31.27;;;16.02;;
85158;SDS011;75525;50.718;10.600;2024-03-07T03:20:38;32.60;;;16.75;;
85158;SDS011;75525;50.718;10.600;2024-03-07T03:21:39;30.98;;;16.83;;
85158;SDS011;75525;50.718;10.600;2024-03-07T03:22:40;33.33;;;17.50;;
85158;SDS011;75525;50.718;10.600;2024-03-07T03:23:44;39.10;;;16.90;;
85158;SDS011;75525;50.718;10.600;2024-03-07T03:24:44;32.70;;;16.15;;
85158;SDS011;75525;50.718;10.600;2024-03-07T03:25:44;31.85;;;16.50;;
85158;SDS011;75525;50.718;10.600;2024-03-07T03:26:45;28.75;;;14.95;;
85158;SDS011;75525;50.718;10.600;2024-03-07T03:27:49;42.97;;;16.95;;
85158;SDS011;75525;50.718;10.600;2024-03-07T03:28:50;32.35;;;15.73;;
85158;SDS011;75525;50.718;10.600;2024-03-07T03:29:50;33.17;;;18.08;;
85158;SDS011;75525;50.718;10.600;2024-03-07T03:30:51;31.05;;;16.45;;
85158;SDS011;75525;50.718;10.600;2024-03-07T03:31:53;29.75;;;15.27;;
85158;SDS011;75525;50.718;10.600;2024-03-07T03:32:53;33.47;;;16.13;;
85158;SDS011;75525;50.718;10.600;2024-03-07T03:33:53;30.30;;;16.15;;
85158;SDS011;75525;50.718;10.600;2024-03-07T03:34:54;27.85;;;15.38;;
85158;SDS011;75525;50.718;10.600;2024-03-07T03:35:54;29.90;;;15.00;;
85158;SDS011;75525;50.718;10.600;2024-03-07T03:36:55;33.88;;;16.00;;
85158;SDS011;75525;50.718;10.600;2024-03-07T03:37:55;28.40;;;15.23;;
85158;SDS011;75525;50.718;10.600;2024-03-07T03:38:56;28.50;;;14.73;;
85158;SDS011;75525;50.718;10.600;2024-03-07T03:39:56;33.60;;;16.00;;
85158;SDS011;75525;50.718;10.600;2024-03-07T03:40:57;30.88;;;15.40;;
85158;SDS011;75525;50.718;10.600;2024-03-07T03:41:57;28.92;;;15.00;;
85158;SDS011;75525;50.718;10.600;2024-03-07T03:42:58;31.70;;;15.70;;
85158;SDS011;75525;50.718;10.600;2024-03-07T03:43:58;30.38;;;15.18;;
85158;SDS011;75525;50.718;10.600;2024-03-07T03:44:59;29.55;;;15.52;;
85158;SDS011;75525;50.718;10.600;2024-03-07T03:45:59;31.38;;;16.30;;
85158;SDS011;75525;50.718;10.600;2024-03-07T03:47:02;28.60;;;15.32;;
85158;SDS011;75525;50.718;10.600;2024-03-07T03:48:04;33.95;;;16.45;;
85158;SDS011;75525;50.718;10.600;2024-03-07T03:49:04;30.05;;;16.58;;
85158;SDS011;75525;50.718;10.600;2024-03-07T03:50:06;31.48;;;15.30;;
85158;SDS011;75525;50.718;10.600;2024-03-07T03:51:09;32.85;;;17.15;;
85158;SDS011;75525;50.718;10.600;2024-03-07T03:52:10;31.38;;;17.48;;
85158;SDS011;75525;50.718;10.600;2024-03-07T03:53:11;32.53;;;18.20;;
85158;SDS011;75525;50.718;10.600;2024-03-07T03:54:11;30.77;;;17.23;;
85158;SDS011;75525;50.718;10.600;2024-03-07T03:55:12;34.75;;;18.48;;
85158;SDS011;75525;50.718;10.600;2024-03-07T03:56:12;32.47;;;16.83;;
85158;SDS011;75525;50.718;10.600;2024-03-07T03:57:13;35.08;;;16.52;;
85158;SDS011;75525;50.718;10.600;2024-03-07T03:58:13;35.97;;;17.27;;
85158;SDS011;75525;50.718;10.600;2024-03-07T03:59:14;34.60;;;18.33;;
85158;SDS011;75525;50.718;10.600;2024-03-07T04:00:14;30.23;;;16.83;;
85158;SDS011;75525;50.718;10.600;2024-03-07T04:01:16;34.70;;;18.13;;
85158;SDS011;75525;50.718;10.600;2024-03-07T04:02:16;35.15;;;18.00;;
85158;SDS011;75525;50.718;10.600;2024-03-07T04:03:17;38.45;;;19.42;;
85158;SDS011;75525;50.718;10.600;2024-03-07T04:04:17;32.60;;;18.02;;
85158;SDS011;75525;50.718;10.600;2024-03-07T04:05:18;39.13;;;18.50;;
85158;SDS011;75525;50.718;10.600;2024-03-07T04:06:20;36.65;;;18.40;;
85158;SDS011;75525;50.718;10.600;2024-03-07T04:07:20;32.53;;;17.58;;
85158;SDS011;75525;50.718;10.600;2024-03-07T04:08:21;39.78;;;20.58;;
85158;SDS011;75525;50.718;10.600;2024-03-07T04:09:21;33.80;;;17.73;;
85158;SDS011;75525;50.718;10.600;2024-03-07T04:10:23;32.22;;;16.65;;
85158;SDS011;75525;50.718;10.600;2024-03-07T04:11:24;35.58;;;18.08;;
85158;SDS011;75525;50.718;10.600;2024-03-07T04:12:24;31.85;;;16.30;;
85158;SDS011;75525;50.718;10.600;2024-03-07T04:13:26;33.58;;;17.73;;
85158;SDS011;75525;50.718;10.600;2024-03-07T04:14:28;34.13;;;17.13;;
85158;SDS011;75525;50.718;10.600;2024-03-07T04:15:32;33.95;;;17.75;;
85158;SDS011;75525;50.718;10.600;2024-03-07T04:16:33;36.20;;;18.40;;
85158;SDS011;75525;50.718;10.600;2024-03-07T04:17:34;37.80;;;17.67;;
85158;SDS011;75525;50.718;10.600;2024-03-07T04:18:35;35.55;;;17.67;;
85158;SDS011;75525;50.718;10.600;2024-03-07T04:19:35;32.80;;;17.58;;
85158;SDS011;75525;50.718;10.600;2024-03-07T04:20:35;35.33;;;17.85;;
85158;SDS011;75525;50.718;10.600;2024-03-07T04:21:36;36.05;;;16.83;;
85158;SDS011;75525;50.718;10.600;2024-03-07T04:22:37;37.08;;;18.55;;
85158;SDS011;75525;50.718;10.600;2024-03-07T04:23:40;32.63;;;18.08;;
85158;SDS011;75525;50.718;10.600;2024-03-07T04:24:41;35.00;;;19.02;;
85158;SDS011;75525;50.718;10.600;2024-03-07T04:25:41;34.78;;;17.25;;
85158;SDS011;75525;50.718;10.600;2024-03-07T04:26:43;34.60;;;17.63;;
85158;SDS011;75525;50.718;10.600;2024-03-07T04:27:43;40.70;;;18.42;;
85158;SDS011;75525;50.718;10.600;2024-03-07T04:28:44;37.40;;;18.92;;
85158;SDS011;75525;50.718;10.600;2024-03-07T04:29:45;34.55;;;17.35;;
85158;SDS011;75525;50.718;10.600;2024-03-07T04:30:47;37.38;;;18.35;;
85158;SDS011;75525;50.718;10.600;2024-03-07T04:31:49;33.78;;;17.15;;
85158;SDS011;75525;50.718;10.600;2024-03-07T04:32:50;33.20;;;16.58;;
85158;SDS011;75525;50.718;10.600;2024-03-07T04:33:52;34.78;;;18.25;;
85158;SDS011;75525;50.718;10.600;2024-03-07T04:34:52;36.42;;;17.48;;
85158;SDS011;75525;50.718;10.600;2024-03-07T04:35:52;35.25;;;17.17;;
85158;SDS011;75525;50.718;10.600;2024-03-07T04:36:53;33.58;;;17.80;;
85158;SDS011;75525;50.718;10.600;2024-03-07T04:37:53;34.33;;;16.67;;
85158;SDS011;75525;50.718;10.600;2024-03-07T04:38:54;32.28;;;16.45;;
85158;SDS011;75525;50.718;10.600;2024-03-07T04:39:55;37.45;;;16.98;;
85158;SDS011;75525;50.718;10.600;2024-03-07T04:40:55;36.97;;;18.40;;
85158;SDS011;75525;50.718;10.600;2024-03-07T04:41:56;35.25;;;17.20;;
85158;SDS011;75525;50.718;10.600;2024-03-07T04:42:57;33.80;;;16.83;;
85158;SDS011;75525;50.718;10.600;2024-03-07T04:43:57;38.30;;;16.92;;
85158;SDS011;75525;50.718;10.600;2024-03-07T04:44:59;37.70;;;18.63;;
85158;SDS011;75525;50.718;10.600;2024-03-07T04:46:02;38.13;;;17.15;;
85158;SDS011;75525;50.718;10.600;2024-03-07T04:47:03;39.40;;;18.25;;
85158;SDS011;75525;50.718;10.600;2024-03-07T04:48:04;37.58;;;18.48;;
85158;SDS011;75525;50.718;10.600;2024-03-07T04:49:05;31.88;;;16.98;;
85158;SDS011;75525;50.718;10.600;2024-03-07T04:50:05;38.40;;;18.67;;
85158;SDS011;75525;50.718;10.600;2024-03-07T04:51:06;34.63;;;18.10;;
85158;SDS011;75525;50.718;10.600;2024-03-07T04:52:08;37.63;;;17.38;;
85158;SDS011;75525;50.718;10.600;2024-03-07T04:53:08;34.78;;;17.52;;
85158;SDS011;75525;50.718;10.600;2024-03-07T04:54:09;38.28;;;18.98;;
85158;SDS011;75525;50.718;10.600;2024-03-07T04:55:10;35.38;;;17.38;;
85158;SDS011;75525;50.718;10.600;2024-03-07T04:56:10;38.17;;;17.30;;
85158;SDS011;75525;50.718;10.600;2024-03-07T04:57:11;36.60;;;18.38;;
85158;SDS011;75525;50.718;10.600;2024-03-07T04:58:11;39.38;;;17.35;;
85158;SDS011;75525;50.718;10.600;2024-03-07T04:59:12;39.25;;;19.08;;
85158;SDS011;75525;50.718;10.600;2024-03-07T05:00:13;36.38;;;17.52;;
85158;SDS011;75525;50.718;10.600;2024-03-07T05:01:15;42.65;;;18.88;;
85158;SDS011;75525;50.718;10.600;2024-03-07T05:02:15;35.95;;;17.58;;
85158;SDS011;75525;50.718;10.600;2024-03-07T05:03:16;35.88;;;16.92;;
85158;SDS011;75525;50.718;10.600;2024-03-07T05:04:16;33.88;;;17.48;;
85158;SDS011;75525;50.718;10.600;2024-03-07T05:05:17;36.83;;;17.92;;
85158;SDS011;75525;50.718;10.600;2024-03-07T05:06:25;33.88;;;17.00;;
85158;SDS011;75525;50.718;10.600;2024-03-07T05:07:26;33.60;;;17.02;;
85158;SDS011;75525;50.718;10.600;2024-03-07T05:08:26;36.22;;;16.70;;
85158;SDS011;75525;50.718;10.600;2024-03-07T05:09:27;36.65;;;17.38;;
85158;SDS011;75525;50.718;10.600;2024-03-07T05:10:28;36.30;;;17.33;;
85158;SDS011;75525;50.718;10.600;2024-03-07T05:11:30;38.38;;;16.35;;
85158;SDS011;75525;50.718;10.600;2024-03-07T05:12:31;37.65;;;18.20;;
85158;SDS011;75525;50.718;10.600;2024-03-07T05:13:32;38.80;;;16.90;;
85158;SDS011;75525;50.718;10.600;2024-03-07T05:14:33;40.67;;;17.77;;
85158;SDS011;75525;50.718;10.600;2024-03-07T05:15:33;36.88;;;17.25;;
85158;SDS011;75525;50.718;10.600;2024-03-07T05:16:34;37.75;;;18.55;;
85158;SDS011;75525;50.718;10.600;2024-03-07T05:17:35;39.13;;;17.98;;
85158;SDS011;75525;50.718;10.600;2024-03-07T05:18:37;36.08;;;16.02;;
85158;SDS011;75525;50.718;10.600;2024-03-07T05:19:38;35.17;;;18.13;;
85158;SDS011;75525;50.718;10.600;2024-03-07T05:20:38;39.15;;;17.63;;
85158;SDS011;75525;50.718;10.600;2024-03-07T05:21:39;35.97;;;18.30;;
85158;SDS011;75525;50.718;10.600;2024-03-07T05:22:40;31.98;;;15.65;;
85158;SDS011;75525;50.718;10.600;2024-03-07T05:23:44;33.60;;;16.23;;
85158;SDS011;75525;50.718;10.600;2024-03-07T05:24:44;36.35;;;16.83;;
85158;SDS011;75525;50.718;10.600;2024-03-07T05:25:45;36.60;;;17.27;;
85158;SDS011;75525;50.718;10.600;2024-03-07T05:26:46;35.95;;;16.88;;
85158;SDS011;75525;50.718;10.600;2024-03-07T05:27:47;34.33;;;16.52;;
85158;SDS011;75525;50.718;10.600;2024-03-07T05:28:50;32.33;;;15.18;;
85158;SDS011;75525;50.718;10.600;2024-03-07T05:29:51;35.10;;;16.73;;
85158;SDS011;75525;50.718;10.600;2024-03-07T05:30:52;32.83;;;15.68;;
85158;SDS011;75525;50.718;10.600;2024-03-07T05:31:52;30.80;;;14.95;;
85158;SDS011;75525;50.718;10.600;2024-03-07T05:32:53;34.72;;;16.17;;
85158;SDS011;75525;50.718;10.600;2024-03-07T05:33:53;32.83;;;17.27;;
85158;SDS011;75525;50.718;10.600;2024-03-07T05:34:54;35.75;;;16.83;;
85158;SDS011;75525;50.718;10.600;2024-03-07T05:35:54;30.73;;;15.45;;
85158;SDS011;75525;50.718;10.600;2024-03-07T05:37:13;32.47;;;16.35;;
85158;SDS011;75525;50.718;10.600;2024-03-07T05:38:14;33.78;;;15.20;;
85158;SDS011;75525;50.718;10.600;2024-03-07T05:39:16;27.92;;;14.27;;
85158;SDS011;75525;50.718;10.600;2024-03-07T05:40:17;27.08;;;14.88;;
85158;SDS011;75525;50.718;10.600;2024-03-07T05:41:18;32.58;;;15.77;;
85158;SDS011;75525;50.718;10.600;2024-03-07T05:42:18;30.20;;;15.02;;
85158;SDS011;75525;50.718;10.600;2024-03-07T05:43:19;31.48;;;15.23;;
85158;SDS011;75525;50.718;10.600;2024-03-07T05:44:20;32.72;;;17.48;;
85158;SDS011;75525;50.718;10.600;2024-03-07T05:45:22;38.75;;;17.35;;
85158;SDS011;75525;50.718;10.600;2024-03-07T05:46:23;32.00;;;15.65;;
85158;SDS011;75525;50.718;10.600;2024-03-07T05:47:24;33.22;;;15.82;;
85158;SDS011;75525;50.718;10.600;2024-03-07T05:48:24;30.45;;;15.52;;
85158;SDS011;75525;50.718;10.600;2024-03-07T05:49:24;29.38;;;15.82;;
85158;SDS011;75525;50.718;10.600;2024-03-07T05:50:25;33.75;;;16.30;;
85158;SDS011;75525;50.718;10.600;2024-03-07T05:51:25;31.70;;;16.00;;